Time;durP1;ratioP1;P1;durP2;ratioP2;P2;SDS_P1;SDS_P2;PMS_P1;PMS_P2;Temp;Humidity;BMP_temperature;BMP_pressure;BME280_temperature;BME280_humidity;BME280_pressure;Samples;Min_cycle;Max_cycle;Signal;HPM_P1;HPM_P2
2023/06/29 00:00:23;;;;;;;8.55;4.07;;;;;;;;;;5065953;28;20101;-79
2023/06/29 00:02:49;;;;;;;9.82;4.82;;;;;;;;;;5067511;28;20021;-78
2023/06/29 00:05:15;;;;;;;9.85;4.05;;;;;;;;;;5089315;28;20112;-80
2023/06/29 00:07:42;;;;;;;8.45;3.45;;;;;;;;;;5064689;28;20051;-79
2023/06/29 00:10:09;;;;;;;9.75;3.83;;;;;;;;;;5066982;28;20029;-79
2023/06/29 00:12:36;;;;;;;8.10;3.72;;;;;;;;;;5061742;28;20018;-80
2023/06/29 00:15:03;;;;;;;10.23;4.38;;;;;;;;;;5070975;28;20029;-80
2023/06/29 00:17:29;;;;;;;8.40;3.92;;;;;;;;;;5068360;28;20577;-79
2023/06/29 00:19:55;;;;;;;8.43;3.55;;;;;;;;;;5069650;28;20049;-79
2023/06/29 00:22:21;;;;;;;6.50;3.58;;;;;;;;;;5069007;28;20033;-79
2023/06/29 00:24:55;;;;;;;5.65;3.25;;;;;;;;;;5070644;28;20041;-79
2023/06/29 00:27:22;;;;;;;9.23;4.32;;;;;;;;;;5069231;28;20021;-79
2023/06/29 00:29:48;;;;;;;9.68;3.78;;;;;;;;;;5069366;28;20029;-79
2023/06/29 00:32:15;;;;;;;8.05;3.85;;;;;;;;;;5084458;28;20009;-79
2023/06/29 00:34:41;;;;;;;8.75;3.53;;;;;;;;;;5069857;28;20112;-79
2023/06/29 00:37:07;;;;;;;6.05;3.90;;;;;;;;;;5066621;28;20052;-79
2023/06/29 00:39:33;;;;;;;7.32;3.85;;;;;;;;;;5068555;28;20025;-80
2023/06/29 00:41:59;;;;;;;11.23;4.60;;;;;;;;;;5066959;28;20025;-78
2023/06/29 00:44:25;;;;;;;12.90;4.18;;;;;;;;;;5067922;28;20030;-79
2023/06/29 00:46:53;;;;;;;9.73;4.32;;;;;;;;;;5069217;28;20021;-79
2023/06/29 00:49:20;;;;;;;8.55;4.10;;;;;;;;;;5067738;28;20025;-79
2023/06/29 00:51:48;;;;;;;7.93;4.57;;;;;;;;;;5067270;28;20013;-79
2023/06/29 00:54:14;;;;;;;7.28;3.75;;;;;;;;;;5066400;28;20066;-79
2023/06/29 00:56:41;;;;;;;7.30;3.90;;;;;;;;;;5067100;28;20043;-79
2023/06/29 00:59:07;;;;;;;7.00;3.92;;;;;;;;;;5067155;28;20024;-79
2023/06/29 01:01:33;;;;;;;11.52;4.07;;;;;;;;;;5066836;28;20021;-79
2023/06/29 01:03:59;;;;;;;7.13;3.53;;;;;;;;;;5066852;28;20217;-79
2023/06/29 01:06:31;;;;;;;8.63;4.32;;;;;;;;;;5068759;28;20012;-79
2023/06/29 01:09:04;;;;;;;11.32;4.45;;;;;;;;;;5061371;28;20032;-80
2023/06/29 01:11:30;;;;;;;9.93;4.22;;;;;;;;;;5066432;28;20075;-79
2023/06/29 01:13:57;;;;;;;9.18;4.55;;;;;;;;;;5072483;28;20041;-79
2023/06/29 01:16:23;;;;;;;10.55;4.32;;;;;;;;;;5066557;28;20024;-79
2023/06/29 01:18:51;;;;;;;11.48;4.65;;;;;;;;;;5063089;28;20048;-79
2023/06/29 01:21:18;;;;;;;9.48;3.70;;;;;;;;;;5084037;28;20025;-78
2023/06/29 01:23:45;;;;;;;7.80;3.78;;;;;;;;;;5066549;28;20021;-79
2023/06/29 01:26:12;;;;;;;8.90;4.40;;;;;;;;;;5065152;28;20035;-79
2023/06/29 01:28:39;;;;;;;11.20;4.30;;;;;;;;;;5066305;28;20403;-80
2023/06/29 01:31:05;;;;;;;9.38;3.78;;;;;;;;;;5067057;28;20021;-79
2023/06/29 01:33:32;;;;;;;6.18;3.78;;;;;;;;;;5066606;28;20025;-77
2023/06/29 01:36:02;;;;;;;9.00;4.28;;;;;;;;;;5067998;28;20040;-77
2023/06/29 01:38:32;;;;;;;6.55;3.67;;;;;;;;;;5107535;22;20024;-80
2023/06/29 01:41:01;;;;;;;8.45;4.22;;;;;;;;;;5069348;28;20009;-78
2023/06/29 01:43:28;;;;;;;11.23;4.72;;;;;;;;;;5083690;23;20036;-79
2023/06/29 01:48:31;;;;;;;6.93;4.05;;;;;;;;;;5102022;22;20060;-79
2023/06/29 01:50:57;;;;;;;9.98;4.32;;;;;;;;;;5085440;28;20016;-79
2023/06/29 01:53:23;;;;;;;19.38;4.13;;;;;;;;;;5084919;28;20070;-78
2023/06/29 01:55:49;;;;;;;12.05;4.80;;;;;;;;;;5084941;28;21007;-78
2023/06/29 01:58:15;;;;;;;9.52;4.15;;;;;;;;;;5084660;28;20009;-79
2023/06/29 02:00:41;;;;;;;8.38;3.97;;;;;;;;;;5084695;28;20059;-79
2023/06/29 02:03:07;;;;;;;8.90;4.15;;;;;;;;;;5084181;28;20047;-80
2023/06/29 02:05:33;;;;;;;8.25;3.92;;;;;;;;;;5084059;28;20036;-78
2023/06/29 02:07:59;;;;;;;5.18;3.42;;;;;;;;;;5084084;28;20104;-78
2023/06/29 02:10:25;;;;;;;8.15;4.03;;;;;;;;;;5084643;28;20032;-78
2023/06/29 02:12:51;;;;;;;6.15;3.08;;;;;;;;;;5085122;28;20055;-77
2023/06/29 02:15:17;;;;;;;7.75;3.65;;;;;;;;;;5084090;28;20025;-79
2023/06/29 02:17:43;;;;;;;5.43;3.35;;;;;;;;;;5085918;28;20032;-78
2023/06/29 02:20:10;;;;;;;5.47;3.60;;;;;;;;;;5086355;28;20504;-79
2023/06/29 02:22:36;;;;;;;8.27;3.90;;;;;;;;;;5084073;28;20018;-79
2023/06/29 02:25:02;;;;;;;5.35;3.67;;;;;;;;;;5086693;28;20020;-79
2023/06/29 02:27:28;;;;;;;6.53;3.90;;;;;;;;;;5085722;28;20039;-77
2023/06/29 02:29:54;;;;;;;8.23;4.10;;;;;;;;;;5085548;28;20036;-80
2023/06/29 02:32:20;;;;;;;8.90;3.95;;;;;;;;;;5084550;28;20072;-78
2023/06/29 02:34:46;;;;;;;9.75;3.65;;;;;;;;;;5084737;28;20047;-79
2023/06/29 02:37:12;;;;;;;8.18;3.72;;;;;;;;;;5085318;28;20021;-79
2023/06/29 02:39:38;;;;;;;11.45;4.35;;;;;;;;;;5057881;28;20049;-78
2023/06/29 02:42:04;;;;;;;8.77;3.95;;;;;;;;;;5041907;28;20071;-77
2023/06/29 02:44:30;;;;;;;5.93;3.78;;;;;;;;;;5044047;28;20084;-79
2023/06/29 02:46:56;;;;;;;9.10;4.30;;;;;;;;;;5044799;28;20029;-79
2023/06/29 02:49:22;;;;;;;7.80;4.32;;;;;;;;;;5043122;28;20040;-79
2023/06/29 02:51:48;;;;;;;7.32;4.15;;;;;;;;;;5058705;28;20025;-80
2023/06/29 02:54:17;;;;;;;6.72;3.80;;;;;;;;;;5044555;28;20121;-79
2023/06/29 02:56:43;;;;;;;6.50;3.30;;;;;;;;;;5058379;28;20032;-79
2023/06/29 02:59:09;;;;;;;11.55;4.00;;;;;;;;;;5041389;28;20021;-80
2023/06/29 03:01:36;;;;;;;12.93;5.72;;;;;;;;;;5041373;28;20037;-79
2023/06/29 03:04:02;;;;;;;9.60;5.47;;;;;;;;;;5059035;28;20111;-78
2023/06/29 03:06:28;;;;;;;7.28;4.22;;;;;;;;;;5057413;28;20044;-78
2023/06/29 03:08:54;;;;;;;9.80;3.95;;;;;;;;;;5040302;28;20021;-79
2023/06/29 03:11:20;;;;;;;6.60;4.13;;;;;;;;;;5080388;28;20041;-79
2023/06/29 03:13:49;;;;;;;7.25;4.30;;;;;;;;;;5085779;28;20036;-79
2023/06/29 03:16:15;;;;;;;6.72;3.88;;;;;;;;;;5089816;28;20101;-80
2023/06/29 03:18:42;;;;;;;8.13;3.88;;;;;;;;;;5087016;28;20020;-78
2023/06/29 03:21:08;;;;;;;7.63;3.92;;;;;;;;;;5087877;28;20037;-79
2023/06/29 03:23:34;;;;;;;6.45;3.70;;;;;;;;;;5086674;28;20040;-79
2023/06/29 03:26:00;;;;;;;9.23;3.70;;;;;;;;;;5087131;28;20139;-79
2023/06/29 03:28:26;;;;;;;7.20;3.67;;;;;;;;;;5088055;28;20032;-80
2023/06/29 03:30:52;;;;;;;6.75;3.63;;;;;;;;;;5089944;28;20036;-79
2023/06/29 03:33:18;;;;;;;9.27;3.90;;;;;;;;;;5087620;28;20029;-79
2023/06/29 03:35:44;;;;;;;11.30;4.00;;;;;;;;;;5087026;28;20017;-80
2023/06/29 03:38:10;;;;;;;5.38;3.67;;;;;;;;;;5088520;28;20104;-79
2023/06/29 03:40:37;;;;;;;6.88;4.05;;;;;;;;;;5088866;28;20040;-79
2023/06/29 03:43:03;;;;;;;7.03;3.67;;;;;;;;;;5085778;28;20029;-80
2023/06/29 03:45:32;;;;;;;8.88;4.10;;;;;;;;;;5084003;28;20045;-81
2023/06/29 03:47:58;;;;;;;7.25;4.15;;;;;;;;;;5088008;28;20048;-79
2023/06/29 03:50:24;;;;;;;5.22;3.00;;;;;;;;;;5092557;28;20016;-79
2023/06/29 03:52:50;;;;;;;7.93;4.30;;;;;;;;;;5092612;28;20013;-80
2023/06/29 03:55:17;;;;;;;12.18;4.20;;;;;;;;;;5087983;28;20017;-79
2023/06/29 03:57:43;;;;;;;5.78;3.33;;;;;;;;;;5087293;28;20036;-79
2023/06/29 04:00:09;;;;;;;6.95;3.60;;;;;;;;;;5086916;28;20075;-78
2023/06/29 04:02:35;;;;;;;7.20;3.40;;;;;;;;;;5089734;28;20047;-80
2023/06/29 04:05:01;;;;;;;9.27;4.43;;;;;;;;;;5087340;28;20040;-80
2023/06/29 04:07:30;;;;;;;8.50;3.10;;;;;;;;;;5087135;28;20017;-79
2023/06/29 04:09:56;;;;;;;8.48;4.05;;;;;;;;;;5087766;28;20052;-79
2023/06/29 04:12:22;;;;;;;8.02;3.95;;;;;;;;;;5085789;28;20059;-79
2023/06/29 04:14:49;;;;;;;9.13;4.15;;;;;;;;;;5085961;28;20052;-79
2023/06/29 04:17:15;;;;;;;7.32;3.97;;;;;;;;;;5086110;28;20063;-78
2023/06/29 04:19:41;;;;;;;4.72;3.05;;;;;;;;;;5085798;28;20036;-78
2023/06/29 04:22:07;;;;;;;8.68;3.83;;;;;;;;;;5084422;28;20020;-79
2023/06/29 04:24:33;;;;;;;5.55;3.28;;;;;;;;;;5086150;28;20100;-78
2023/06/29 04:27:00;;;;;;;6.50;3.60;;;;;;;;;;5088522;28;21069;-81
2023/06/29 04:29:26;;;;;;;8.25;3.53;;;;;;;;;;5087923;28;20055;-79
2023/06/29 04:31:54;;;;;;;8.85;3.83;;;;;;;;;;5086838;28;20020;-78
2023/06/29 04:34:20;;;;;;;8.45;4.75;;;;;;;;;;5086287;28;20025;-79
2023/06/29 04:36:46;;;;;;;16.02;4.80;;;;;;;;;;5087990;28;20031;-77
2023/06/29 04:39:13;;;;;;;9.45;4.10;;;;;;;;;;5086466;28;20021;-78
2023/06/29 04:41:40;;;;;;;6.45;4.15;;;;;;;;;;5087048;28;20036;-78
2023/06/29 04:44:08;;;;;;;9.63;4.05;;;;;;;;;;5088339;28;20033;-78
2023/06/29 04:46:34;;;;;;;6.88;4.07;;;;;;;;;;5086950;28;20045;-79
2023/06/29 04:49:04;;;;;;;4.90;3.20;;;;;;;;;;5084712;28;20088;-78
2023/06/29 04:51:31;;;;;;;8.45;4.22;;;;;;;;;;5085235;28;20025;-79
2023/06/29 04:54:00;;;;;;;8.95;4.03;;;;;;;;;;5086729;28;20044;-79
2023/06/29 04:56:26;;;;;;;7.35;4.20;;;;;;;;;;5084679;28;20045;-79
2023/06/29 04:58:52;;;;;;;11.00;4.38;;;;;;;;;;5086403;28;20017;-79
2023/06/29 05:01:18;;;;;;;11.93;4.97;;;;;;;;;;5086283;28;20023;-79
2023/06/29 05:03:44;;;;;;;6.55;3.88;;;;;;;;;;5087092;28;20013;-80
2023/06/29 05:06:10;;;;;;;6.78;3.63;;;;;;;;;;5086152;28;20033;-80
2023/06/29 05:08:36;;;;;;;18.05;4.50;;;;;;;;;;5086462;28;20009;-79
2023/06/29 05:11:02;;;;;;;5.95;3.63;;;;;;;;;;5084668;28;20028;-78
2023/06/29 05:13:28;;;;;;;7.70;4.38;;;;;;;;;;5087700;28;20039;-79
2023/06/29 05:15:54;;;;;;;7.53;4.20;;;;;;;;;;5086595;28;20293;-79
2023/06/29 05:18:20;;;;;;;9.35;4.25;;;;;;;;;;5087763;28;20032;-78
2023/06/29 05:20:46;;;;;;;7.68;3.85;;;;;;;;;;5079707;28;20107;-79
2023/06/29 05:23:12;;;;;;;11.55;5.10;;;;;;;;;;5075478;28;20024;-79
2023/06/29 05:25:39;;;;;;;8.45;4.75;;;;;;;;;;5068092;28;20224;-79
2023/06/29 05:28:05;;;;;;;11.50;6.15;;;;;;;;;;5073783;28;20039;-79
2023/06/29 05:30:31;;;;;;;13.75;5.32;;;;;;;;;;5068278;28;20078;-79
2023/06/29 05:32:57;;;;;;;12.98;5.03;;;;;;;;;;5065197;28;20394;-80
2023/06/29 05:35:23;;;;;;;10.50;5.38;;;;;;;;;;5066472;28;20025;-79
2023/06/29 05:37:49;;;;;;;11.00;5.47;;;;;;;;;;5065275;28;20047;-81
2023/06/29 05:40:15;;;;;;;9.90;5.57;;;;;;;;;;5066384;28;20107;-81
2023/06/29 05:42:41;;;;;;;13.52;4.70;;;;;;;;;;5065346;28;20029;-80
2023/06/29 05:45:10;;;;;;;12.13;5.22;;;;;;;;;;5067144;28;20567;-80
2023/06/29 05:47:36;;;;;;;11.45;6.18;;;;;;;;;;5061176;28;20029;-78
2023/06/29 05:50:04;;;;;;;11.60;5.93;;;;;;;;;;5063296;28;20035;-80
2023/06/29 05:52:30;;;;;;;11.52;5.78;;;;;;;;;;5062907;28;20452;-80
2023/06/29 05:54:56;;;;;;;11.45;5.97;;;;;;;;;;5069619;28;20029;-80
2023/06/29 05:57:22;;;;;;;12.50;5.72;;;;;;;;;;5063612;28;20031;-81
2023/06/29 05:59:48;;;;;;;10.35;5.63;;;;;;;;;;5060893;28;20453;-81
2023/06/29 06:02:14;;;;;;;11.88;5.32;;;;;;;;;;5066830;28;20032;-81
2023/06/29 06:04:42;;;;;;;8.93;4.88;;;;;;;;;;5065220;28;20060;-81
2023/06/29 06:07:08;;;;;;;11.63;7.93;;;;;;;;;;5064115;28;20029;-81
2023/06/29 06:09:35;;;;;;;10.95;5.72;;;;;;;;;;5064743;28;20112;-82
2023/06/29 06:12:05;;;;;;;11.68;6.10;;;;;;;;;;5064832;28;20020;-82
2023/06/29 06:14:31;;;;;;;8.15;5.38;;;;;;;;;;5065770;28;20024;-81
2023/06/29 06:16:57;;;;;;;13.80;5.90;;;;;;;;;;5060327;28;20491;-82
2023/06/29 06:19:23;;;;;;;13.68;5.85;;;;;;;;;;5063776;28;20029;-82
2023/06/29 06:21:49;;;;;;;14.48;5.97;;;;;;;;;;5061941;28;20020;-81
2023/06/29 06:24:15;;;;;;;20.48;7.07;;;;;;;;;;5062859;28;20032;-82
2023/06/29 06:26:41;;;;;;;11.65;6.10;;;;;;;;;;5061404;28;20460;-83
2023/06/29 06:29:09;;;;;;;12.32;6.38;;;;;;;;;;5068412;28;20112;-83
2023/06/29 06:31:35;;;;;;;7.30;5.10;;;;;;;;;;5061341;28;20027;-83
2023/06/29 06:34:01;;;;;;;7.60;3.90;;;;;;;;;;5056481;28;20028;-84
2023/06/29 06:36:30;;;;;;;9.38;4.05;;;;;;;;;;5063061;28;20025;-84
2023/06/29 06:38:56;;;;;;;7.85;4.32;;;;;;;;;;5067260;28;20029;-83
2023/06/29 06:41:22;;;;;;;9.60;4.63;;;;;;;;;;5062591;28;20032;-84
2023/06/29 06:43:48;;;;;;;13.25;6.05;;;;;;;;;;5061251;28;20373;-83
2023/06/29 06:46:14;;;;;;;11.55;5.35;;;;;;;;;;5062613;28;20033;-83
2023/06/29 06:48:40;;;;;;;13.35;5.82;;;;;;;;;;5065524;28;20029;-84
2023/06/29 06:51:06;;;;;;;10.40;5.45;;;;;;;;;;5066416;28;20107;-84
2023/06/29 06:53:32;;;;;;;8.93;4.47;;;;;;;;;;5068045;28;20020;-83
2023/06/29 06:55:58;;;;;;;10.45;5.30;;;;;;;;;;5063803;28;20048;-83
2023/06/29 06:58:24;;;;;;;12.27;4.97;;;;;;;;;;5072266;28;20082;-82
2023/06/29 07:00:53;;;;;;;10.27;4.50;;;;;;;;;;5070939;28;20489;-84
2023/06/29 07:03:19;;;;;;;10.65;4.38;;;;;;;;;;5068820;28;20128;-84
2023/06/29 07:05:47;;;;;;;15.40;5.40;;;;;;;;;;5067962;28;20028;-84
2023/06/29 07:08:13;;;;;;;11.75;4.45;;;;;;;;;;5066743;28;20429;-84
2023/06/29 07:10:39;;;;;;;11.32;4.72;;;;;;;;;;5067915;28;20037;-85
2023/06/29 07:13:05;;;;;;;13.30;5.00;;;;;;;;;;5072339;28;20024;-83
2023/06/29 07:15:31;;;;;;;10.15;4.45;;;;;;;;;;5066644;28;20035;-84
2023/06/29 07:17:57;;;;;;;13.18;4.60;;;;;;;;;;5069942;28;20171;-85
2023/06/29 07:20:25;;;;;;;8.75;3.75;;;;;;;;;;5069651;28;20468;-83
2023/06/29 07:22:51;;;;;;;10.30;4.18;;;;;;;;;;5065844;28;20028;-85
2023/06/29 07:25:17;;;;;;;10.45;3.55;;;;;;;;;;5066409;28;20032;-84
2023/06/29 07:27:43;;;;;;;7.40;3.70;;;;;;;;;;5064750;28;20029;-83
2023/06/29 07:30:09;;;;;;;9.70;4.63;;;;;;;;;;5073654;28;20025;-83
2023/06/29 07:32:35;;;;;;;11.65;4.20;;;;;;;;;;5062807;28;20040;-84
2023/06/29 07:35:01;;;;;;;6.93;3.35;;;;;;;;;;5069389;28;20043;-83
2023/06/29 07:37:27;;;;;;;11.18;3.80;;;;;;;;;;5068689;28;20040;-83
2023/06/29 07:39:53;;;;;;;7.30;3.85;;;;;;;;;;5066569;28;20128;-85
2023/06/29 07:42:19;;;;;;;12.68;4.32;;;;;;;;;;5065228;28;20057;-84
2023/06/29 07:44:46;;;;;;;12.30;3.83;;;;;;;;;;5063994;28;20025;-84
2023/06/29 07:47:12;;;;;;;11.45;3.53;;;;;;;;;;5068414;28;20633;-83
2023/06/29 07:49:37;;;;;;;9.57;3.50;;;;;;;;;;5066663;28;20108;-83
2023/06/29 07:52:04;;;;;;;11.85;3.80;;;;;;;;;;5061236;28;20471;-83
2023/06/29 07:54:30;;;;;;;8.48;3.28;;;;;;;;;;5067729;28;20093;-84
2023/06/29 07:56:56;;;;;;;8.38;3.60;;;;;;;;;;5065648;28;20161;-83
2023/06/29 07:59:22;;;;;;;9.07;3.20;;;;;;;;;;5068110;28;20024;-83
2023/06/29 08:01:52;;;;;;;12.20;3.67;;;;;;;;;;5067659;28;20033;-83
2023/06/29 08:04:18;;;;;;;8.55;3.55;;;;;;;;;;5069671;28;20562;-85
2023/06/29 08:06:44;;;;;;;9.18;3.85;;;;;;;;;;5066561;28;20087;-85
2023/06/29 08:09:11;;;;;;;9.85;3.72;;;;;;;;;;5064941;28;20036;-83
2023/06/29 08:11:37;;;;;;;9.30;3.50;;;;;;;;;;5068624;28;20020;-84
2023/06/29 08:14:04;;;;;;;7.35;3.15;;;;;;;;;;5063746;28;20463;-83
2023/06/29 08:16:30;;;;;;;5.88;3.38;;;;;;;;;;5071403;28;20052;-83
2023/06/29 08:18:56;;;;;;;21.20;3.92;;;;;;;;;;5069644;28;20036;-83
2023/06/29 08:21:22;;;;;;;10.48;3.95;;;;;;;;;;5068527;28;20025;-83
2023/06/29 08:23:50;;;;;;;8.05;3.67;;;;;;;;;;5067412;28;20107;-84
2023/06/29 08:26:16;;;;;;;5.85;3.17;;;;;;;;;;5063744;28;20071;-84
2023/06/29 08:28:42;;;;;;;13.20;4.05;;;;;;;;;;5066969;28;20106;-83
2023/06/29 08:31:08;;;;;;;10.07;3.50;;;;;;;;;;5067658;28;20074;-83
2023/06/29 08:33:34;;;;;;;12.70;4.10;;;;;;;;;;5061013;28;20025;-85
2023/06/29 08:36:00;;;;;;;10.02;3.63;;;;;;;;;;5062861;28;20542;-83
2023/06/29 08:38:29;;;;;;;9.05;4.07;;;;;;;;;;5063913;28;20032;-83
2023/06/29 08:40:59;;;;;;;9.80;3.83;;;;;;;;;;5064667;28;20115;-84
2023/06/29 08:43:25;;;;;;;9.85;4.38;;;;;;;;;;5065133;28;20022;-84
2023/06/29 08:46:06;;;;;;;13.07;4.20;;;;;;;;;;5062829;28;20032;-84
2023/06/29 08:48:33;;;;;;;8.30;4.13;;;;;;;;;;5063491;28;20508;-83
2023/06/29 08:51:03;;;;;;;12.48;4.47;;;;;;;;;;5067994;28;20072;-83
2023/06/29 08:53:29;;;;;;;13.48;4.22;;;;;;;;;;5066164;28;20107;-83
2023/06/29 08:55:56;;;;;;;8.85;5.00;;;;;;;;;;5064298;28;20025;-85
2023/06/29 08:58:22;;;;;;;14.93;5.30;;;;;;;;;;5062203;28;20033;-83
2023/06/29 09:00:49;;;;;;;12.02;5.18;;;;;;;;;;5062707;28;20594;-83
2023/06/29 09:03:17;;;;;;;11.27;5.82;;;;;;;;;;5063190;28;20032;-83
2023/06/29 09:05:45;;;;;;;11.88;5.43;;;;;;;;;;5069704;28;20036;-83
2023/06/29 09:08:11;;;;;;;9.82;5.18;;;;;;;;;;5061840;28;20386;-83
2023/06/29 09:10:39;;;;;;;11.55;5.65;;;;;;;;;;5061446;28;20041;-83
2023/06/29 09:13:05;;;;;;;10.60;6.10;;;;;;;;;;5062524;28;20445;-84
2023/06/29 09:15:32;;;;;;;11.27;5.35;;;;;;;;;;5063221;28;20080;-84
2023/06/29 09:17:58;;;;;;;10.30;6.05;;;;;;;;;;5063362;28;20024;-82
2023/06/29 09:20:25;;;;;;;14.13;5.65;;;;;;;;;;5066617;28;20036;-84
2023/06/29 09:22:51;;;;;;;12.38;5.07;;;;;;;;;;5066140;28;20166;-82
2023/06/29 09:25:17;;;;;;;12.70;5.43;;;;;;;;;;5061261;28;20368;-84
2023/06/29 09:27:43;;;;;;;13.50;5.20;;;;;;;;;;5066931;28;20074;-84
2023/06/29 09:30:15;;;;;;;9.20;4.70;;;;;;;;;;5060691;28;20475;-84
2023/06/29 09:32:41;;;;;;;10.88;4.85;;;;;;;;;;5059132;28;20441;-84
2023/06/29 09:35:08;;;;;;;8.48;4.97;;;;;;;;;;5060361;28;20086;-83
2023/06/29 09:37:35;;;;;;;10.63;4.93;;;;;;;;;;5064846;28;20020;-83
2023/06/29 09:40:04;;;;;;;8.15;5.30;;;;;;;;;;5070146;28;20507;-83
2023/06/29 09:42:36;;;;;;;7.78;4.88;;;;;;;;;;5063385;28;20033;-84
2023/06/29 09:45:03;;;;;;;13.23;5.40;;;;;;;;;;5061440;28;20102;-84
2023/06/29 09:47:29;;;;;;;10.02;5.22;;;;;;;;;;5067059;28;20032;-84
2023/06/29 09:49:55;;;;;;;11.90;5.40;;;;;;;;;;5065872;28;20033;-82
2023/06/29 09:52:22;;;;;;;7.93;4.85;;;;;;;;;;5065005;28;20028;-83
2023/06/29 09:54:51;;;;;;;12.98;5.05;;;;;;;;;;5062777;28;20044;-82
2023/06/29 09:57:18;;;;;;;8.40;4.80;;;;;;;;;;5064302;28;20017;-83
2023/06/29 09:59:46;;;;;;;8.77;5.25;;;;;;;;;;5064768;28;20116;-83
2023/06/29 10:02:12;;;;;;;9.30;4.97;;;;;;;;;;5060612;28;20032;-84
2023/06/29 10:04:40;;;;;;;13.25;5.85;;;;;;;;;;5063705;28;20145;-82
2023/06/29 10:07:08;;;;;;;9.20;5.53;;;;;;;;;;5066990;28;20472;-83
2023/06/29 10:09:38;;;;;;;8.95;5.30;;;;;;;;;;5066737;28;20025;-82
2023/06/29 10:12:06;;;;;;;11.68;5.88;;;;;;;;;;5064471;28;20027;-83
2023/06/29 10:14:33;;;;;;;12.65;5.95;;;;;;;;;;5066380;28;20113;-84
2023/06/29 10:17:00;;;;;;;12.02;6.00;;;;;;;;;;5067179;28;20061;-83
2023/06/29 10:19:29;;;;;;;11.05;5.40;;;;;;;;;;5067296;28;20056;-84
2023/06/29 10:22:06;;;;;;;10.85;5.68;;;;;;;;;;5072020;28;20036;-83
2023/06/29 10:24:35;;;;;;;12.50;5.95;;;;;;;;;;5074053;28;20024;-83
2023/06/29 10:27:02;;;;;;;12.43;6.05;;;;;;;;;;5066527;28;20032;-83
2023/06/29 10:29:28;;;;;;;11.38;6.18;;;;;;;;;;5067285;28;20105;-83
2023/06/29 10:31:58;;;;;;;12.52;6.00;;;;;;;;;;5072579;28;20063;-84
2023/06/29 10:34:26;;;;;;;11.25;6.57;;;;;;;;;;5074353;28;20120;-83
2023/06/29 10:36:52;;;;;;;13.40;7.30;;;;;;;;;;5074373;28;20016;-83
2023/06/29 10:39:37;;;;;;;13.77;6.68;;;;;;;;;;5069373;28;20081;-84
2023/06/29 10:42:08;;;;;;;16.83;7.38;;;;;;;;;;5069642;28;20036;-83
2023/06/29 10:44:34;;;;;;;14.85;7.28;;;;;;;;;;5065297;28;20043;-84
2023/06/29 10:47:03;;;;;;;14.10;7.35;;;;;;;;;;5067560;28;20033;-85
2023/06/29 10:49:29;;;;;;;14.80;7.63;;;;;;;;;;5067349;28;20028;-82
2023/06/29 10:52:00;;;;;;;16.10;8.70;;;;;;;;;;5064093;28;20029;-83
2023/06/29 10:54:27;;;;;;;19.13;8.48;;;;;;;;;;5065910;28;20067;-83
2023/06/29 10:57:10;;;;;;;17.48;8.30;;;;;;;;;;5066339;28;20020;-84
2023/06/29 10:59:36;;;;;;;14.63;8.50;;;;;;;;;;5065517;28;20025;-83
2023/06/29 11:02:03;;;;;;;17.38;8.10;;;;;;;;;;5069492;28;20024;-84
2023/06/29 11:04:29;;;;;;;18.92;8.15;;;;;;;;;;5065582;28;20092;-83
2023/06/29 11:06:55;;;;;;;15.27;8.65;;;;;;;;;;5069730;28;20048;-84
2023/06/29 11:09:21;;;;;;;17.38;8.68;;;;;;;;;;5067551;28;20059;-83
2023/06/29 11:11:48;;;;;;;15.82;9.95;;;;;;;;;;5069144;28;20033;-84
2023/06/29 11:14:14;;;;;;;23.27;10.35;;;;;;;;;;5066116;28;20024;-83
2023/06/29 11:16:43;;;;;;;25.02;9.93;;;;;;;;;;5067037;28;20044;-83
2023/06/29 11:19:12;;;;;;;16.13;8.82;;;;;;;;;;5067690;28;20374;-84
2023/06/29 11:21:40;;;;;;;18.35;9.38;;;;;;;;;;5067256;28;20017;-84
2023/06/29 11:24:06;;;;;;;16.95;8.85;;;;;;;;;;5067930;28;20029;-83
2023/06/29 11:26:34;;;;;;;14.82;8.35;;;;;;;;;;5067387;28;20025;-84
2023/06/29 11:29:00;;;;;;;25.73;8.65;;;;;;;;;;5067612;28;20052;-83
2023/06/29 11:31:26;;;;;;;20.92;7.70;;;;;;;;;;5065087;28;20048;-83
2023/06/29 11:33:53;;;;;;;17.52;8.68;;;;;;;;;;5070099;28;20021;-82
2023/06/29 11:36:27;;;;;;;17.58;8.48;;;;;;;;;;5063811;28;20106;-82
2023/06/29 11:39:10;;;;;;;19.85;9.15;;;;;;;;;;5066248;28;20423;-84
2023/06/29 11:41:39;;;;;;;16.38;9.07;;;;;;;;;;5065023;28;20029;-83
2023/06/29 11:44:06;;;;;;;17.77;7.85;;;;;;;;;;5072453;28;20086;-83
2023/06/29 11:46:33;;;;;;;14.68;9.10;;;;;;;;;;5061482;28;20120;-81
2023/06/29 11:48:59;;;;;;;14.18;7.65;;;;;;;;;;5065117;28;20051;-83
2023/06/29 11:51:28;;;;;;;13.02;7.50;;;;;;;;;;5064220;28;20021;-82
2023/06/29 11:53:54;;;;;;;10.50;7.05;;;;;;;;;;5067866;28;20016;-83
2023/06/29 11:56:24;;;;;;;10.70;6.38;;;;;;;;;;5065541;28;20037;-82
2023/06/29 11:58:50;;;;;;;12.50;5.63;;;;;;;;;;5071989;28;20083;-83
2023/06/29 12:01:16;;;;;;;11.95;5.75;;;;;;;;;;5063612;28;20025;-83
2023/06/29 12:03:43;;;;;;;11.02;6.30;;;;;;;;;;5062007;28;20120;-83
2023/06/29 12:06:09;;;;;;;12.60;6.30;;;;;;;;;;5067863;28;20029;-83
2023/06/29 12:08:38;;;;;;;10.93;5.85;;;;;;;;;;5068476;28;20028;-83
2023/06/29 12:11:06;;;;;;;13.02;6.50;;;;;;;;;;5067448;28;20445;-82
2023/06/29 12:13:32;;;;;;;11.45;6.05;;;;;;;;;;5062850;28;20017;-83
2023/06/29 12:16:01;;;;;;;9.85;5.45;;;;;;;;;;5065714;28;20043;-83
2023/06/29 12:18:30;;;;;;;9.55;5.63;;;;;;;;;;5066257;28;20025;-83
2023/06/29 12:21:03;;;;;;;11.98;5.68;;;;;;;;;;5065261;28;20472;-83
2023/06/29 12:23:29;;;;;;;9.55;5.50;;;;;;;;;;5066509;28;20033;-83
2023/06/29 12:25:55;;;;;;;17.05;5.30;;;;;;;;;;5064885;28;20119;-84
2023/06/29 12:28:21;;;;;;;11.40;5.22;;;;;;;;;;5061701;28;20017;-83
2023/06/29 12:30:47;;;;;;;7.63;4.57;;;;;;;;;;5068600;28;20028;-83
2023/06/29 12:33:14;;;;;;;12.63;6.00;;;;;;;;;;5060450;28;20029;-84
2023/06/29 12:35:40;;;;;;;12.63;5.43;;;;;;;;;;5066805;28;20035;-84
2023/06/29 12:38:06;;;;;;;17.00;7.25;;;;;;;;;;5062545;28;20056;-82
2023/06/29 12:40:32;;;;;;;12.73;6.70;;;;;;;;;;5064626;28;20032;-83
2023/06/29 12:42:59;;;;;;;17.27;7.95;;;;;;;;;;5068102;28;20037;-83
2023/06/29 12:45:25;;;;;;;14.52;7.30;;;;;;;;;;5059433;28;20032;-82
2023/06/29 12:47:53;;;;;;;12.70;7.78;;;;;;;;;;5063303;28;20113;-83
2023/06/29 12:50:19;;;;;;;17.10;8.27;;;;;;;;;;5065088;28;20029;-83
2023/06/29 12:52:47;;;;;;;19.52;8.95;;;;;;;;;;5071700;28;20031;-84
2023/06/29 12:55:14;;;;;;;15.98;8.55;;;;;;;;;;5065755;28;20032;-83
2023/06/29 12:57:43;;;;;;;17.95;9.70;;;;;;;;;;5061892;28;20091;-84
2023/06/29 13:00:09;;;;;;;20.67;9.20;;;;;;;;;;5063403;28;20036;-83
2023/06/29 13:02:36;;;;;;;16.45;9.80;;;;;;;;;;5064132;28;20201;-84
2023/06/29 13:05:02;;;;;;;16.13;10.63;;;;;;;;;;5064954;28;20020;-84
2023/06/29 13:07:28;;;;;;;16.75;10.80;;;;;;;;;;5065609;28;20048;-84
2023/06/29 13:09:56;;;;;;;20.50;11.10;;;;;;;;;;5063494;28;20543;-83
2023/06/29 13:12:22;;;;;;;17.05;10.45;;;;;;;;;;5068640;28;20437;-83
2023/06/29 13:14:52;;;;;;;24.20;11.63;;;;;;;;;;5068507;28;20037;-83
2023/06/29 13:17:18;;;;;;;20.77;11.48;;;;;;;;;;5064227;28;20060;-84
2023/06/29 13:19:45;;;;;;;20.77;11.23;;;;;;;;;;5061763;28;20037;-84
2023/06/29 13:22:14;;;;;;;21.42;12.45;;;;;;;;;;5065958;28;20028;-84
2023/06/29 13:24:40;;;;;;;23.70;12.63;;;;;;;;;;5062785;28;20063;-84
2023/06/29 13:27:06;;;;;;;18.35;12.38;;;;;;;;;;5065285;28;20056;-84
2023/06/29 13:29:35;;;;;;;19.33;11.90;;;;;;;;;;5065183;28;20016;-82
2023/06/29 13:32:01;;;;;;;22.65;13.93;;;;;;;;;;5061653;28;20019;-84
2023/06/29 13:34:27;;;;;;;20.80;12.65;;;;;;;;;;5061457;28;20100;-83
2023/06/29 13:36:54;;;;;;;20.63;12.05;;;;;;;;;;5061440;28;20115;-84
2023/06/29 13:39:20;;;;;;;25.88;12.50;;;;;;;;;;5060236;28;20120;-84
2023/06/29 13:41:46;;;;;;;24.55;12.73;;;;;;;;;;5064157;28;20108;-83
2023/06/29 13:44:13;;;;;;;22.30;12.77;;;;;;;;;;5064776;28;20024;-84
2023/06/29 13:46:42;;;;;;;20.10;12.30;;;;;;;;;;5066865;28;20415;-84
2023/06/29 13:49:08;;;;;;;18.17;12.32;;;;;;;;;;5066270;28;20025;-84
2023/06/29 13:51:35;;;;;;;25.27;12.90;;;;;;;;;;5063696;28;20020;-84
2023/06/29 13:54:02;;;;;;;23.98;13.82;;;;;;;;;;5057624;28;20020;-83
2023/06/29 13:56:31;;;;;;;21.67;14.07;;;;;;;;;;5070960;28;20020;-84
2023/06/29 13:58:57;;;;;;;24.95;14.25;;;;;;;;;;5059739;28;20052;-84
2023/06/29 14:01:23;;;;;;;21.30;13.98;;;;;;;;;;5063020;28;20391;-84
2023/06/29 14:03:49;;;;;;;25.95;14.38;;;;;;;;;;5065620;28;20032;-84
2023/06/29 14:06:18;;;;;;;23.25;14.70;;;;;;;;;;5061171;28;20040;-84
2023/06/29 14:08:47;;;;;;;25.20;15.35;;;;;;;;;;5067534;28;20017;-85
2023/06/29 14:11:13;;;;;;;26.27;15.50;;;;;;;;;;5065611;28;20042;-84
2023/06/29 14:13:40;;;;;;;24.50;17.10;;;;;;;;;;5065938;28;20021;-84
2023/06/29 14:16:08;;;;;;;26.13;17.38;;;;;;;;;;5063580;28;20052;-84
2023/06/29 14:18:34;;;;;;;26.45;15.80;;;;;;;;;;5063385;28;20025;-83
2023/06/29 14:21:00;;;;;;;23.88;16.08;;;;;;;;;;5060740;28;21771;-83
2023/06/29 14:23:27;;;;;;;27.60;17.85;;;;;;;;;;5059256;28;20017;-84
2023/06/29 14:25:53;;;;;;;37.50;18.77;;;;;;;;;;5062710;28;20495;-83
2023/06/29 14:28:19;;;;;;;28.35;18.17;;;;;;;;;;5059586;28;20052;-82
2023/06/29 14:30:45;;;;;;;30.13;19.52;;;;;;;;;;5061126;28;20039;-84
2023/06/29 14:33:11;;;;;;;34.08;19.98;;;;;;;;;;5067263;28;20031;-84